createdAt,value
2023-04-10T00:02:09.551Z,3.17
2023-04-10T00:04:36.646Z,3.60
2023-04-10T00:07:03.384Z,3.07
2023-04-10T00:09:30.859Z,3.13
2023-04-10T00:11:57.780Z,3.40
2023-04-10T00:14:24.580Z,3.33
2023-04-10T00:16:52.957Z,4.00
2023-04-10T00:19:19.735Z,3.47
2023-04-10T00:21:46.838Z,3.10
2023-04-10T00:24:13.590Z,2.80
2023-04-10T00:26:40.722Z,2.83
2023-04-10T00:29:08.303Z,2.23
2023-04-10T00:31:35.118Z,2.40
2023-04-10T00:34:01.814Z,2.07
2023-04-10T00:36:28.619Z,2.80
2023-04-10T00:38:55.392Z,3.00
2023-04-10T00:41:23.916Z,2.73
2023-04-10T00:43:51.102Z,3.40
2023-04-10T00:46:17.943Z,2.70
2023-04-10T00:48:44.775Z,2.67
2023-04-10T00:51:12.221Z,2.33
2023-04-10T00:53:38.882Z,3.40
2023-04-10T00:56:06.111Z,3.30
2023-04-10T00:58:32.789Z,3.13
2023-04-10T01:00:59.529Z,2.60
2023-04-10T01:03:26.391Z,3.30
2023-04-10T01:06:27.341Z,3.17
2023-04-10T01:09:06.717Z,2.67
2023-04-10T01:11:51.237Z,3.00
2023-04-10T01:14:23.612Z,2.90
2023-04-10T01:17:08.563Z,3.13
2023-04-10T01:20:01.239Z,3.63
2023-04-10T01:23:09.436Z,3.73
2023-04-10T01:26:02.256Z,3.03
2023-04-10T01:28:47.150Z,2.77
2023-04-10T01:31:20.914Z,3.20
2023-04-10T01:33:51.035Z,3.20
2023-04-10T01:36:26.286Z,2.53
2023-04-10T01:38:54.701Z,2.80
2023-04-10T01:41:22.981Z,2.73
2023-04-10T01:43:52.140Z,2.67
2023-04-10T01:46:24.165Z,2.67
2023-04-10T01:48:52.300Z,2.50
2023-04-10T01:51:18.947Z,3.00
2023-04-10T01:53:47.333Z,2.47
2023-04-10T01:56:15.108Z,2.57
2023-04-10T01:58:42.679Z,2.67
2023-04-10T02:01:19.204Z,3.00
2023-04-10T02:03:53.726Z,2.13
2023-04-10T02:06:37.789Z,2.23
2023-04-10T02:09:23.888Z,2.37
2023-04-10T02:12:07.174Z,2.40
2023-04-10T02:14:38.346Z,3.20
2023-04-10T02:17:05.440Z,2.63
2023-04-10T02:19:33.344Z,2.07
2023-04-10T02:22:00.166Z,2.77
2023-04-10T02:24:27.571Z,2.67
2023-04-10T02:26:54.260Z,2.67
2023-04-10T02:29:20.874Z,2.60
2023-04-10T02:31:47.723Z,2.17
2023-04-10T02:34:14.529Z,2.50
2023-04-10T02:36:41.240Z,2.30
2023-04-10T02:39:10.645Z,2.73
2023-04-10T02:41:37.350Z,2.47
2023-04-10T02:44:04.322Z,2.87
2023-04-10T02:46:31.271Z,3.07
2023-04-10T02:48:57.996Z,2.50
2023-04-10T02:51:24.570Z,3.27
2023-04-10T02:53:53.417Z,2.97
2023-04-10T02:56:20.923Z,2.23
2023-04-10T02:58:47.855Z,2.33
2023-04-10T03:01:14.570Z,2.90
2023-04-10T03:03:41.311Z,3.10
2023-04-10T03:06:09.287Z,2.63
2023-04-10T03:08:35.948Z,3.10
2023-04-10T03:11:02.638Z,3.83
2023-04-10T03:13:29.215Z,3.43
2023-04-10T03:15:55.924Z,3.20
2023-04-10T03:18:22.706Z,3.60
2023-04-10T03:20:49.346Z,3.10
2023-04-10T03:23:15.988Z,2.80
2023-04-10T03:25:43.374Z,2.77
2023-04-10T03:28:10.339Z,3.03
2023-04-10T03:30:37.259Z,3.53
2023-04-10T03:33:04.082Z,3.80
2023-04-10T03:35:31.145Z,3.53
2023-04-10T03:37:57.825Z,3.33
2023-04-10T03:40:24.512Z,3.43
2023-04-10T03:42:51.224Z,3.73
2023-04-10T03:45:17.863Z,3.60
2023-04-10T03:47:44.549Z,3.67
2023-04-10T03:50:11.247Z,3.60
2023-04-10T03:52:37.872Z,4.67
2023-04-10T03:55:04.826Z,4.37
2023-04-10T03:57:31.463Z,4.00
2023-04-10T03:59:58.037Z,5.50
2023-04-10T04:02:24.753Z,4.30
2023-04-10T04:04:51.664Z,5.17
2023-04-10T04:07:18.358Z,5.03
2023-04-10T04:09:45.592Z,5.50
2023-04-10T04:12:12.292Z,6.30
2023-04-10T04:14:38.925Z,5.03
2023-04-10T04:17:05.688Z,5.03
2023-04-10T04:19:32.294Z,5.23
2023-04-10T04:22:00.559Z,5.47
2023-04-10T04:24:27.274Z,5.37
2023-04-10T04:26:53.953Z,5.77
2023-04-10T04:29:20.690Z,4.93
2023-04-10T04:31:47.379Z,4.70
2023-04-10T04:34:14.046Z,5.43
2023-04-10T04:36:40.671Z,5.13
2023-04-10T04:39:07.392Z,5.57
2023-04-10T04:41:34.196Z,5.40
2023-04-10T04:44:02.418Z,5.47
2023-04-10T04:46:29.215Z,5.90
2023-04-10T04:48:56.567Z,12.70
2023-04-10T04:51:23.337Z,9.43
2023-04-10T04:53:50.162Z,5.07
2023-04-10T04:56:16.847Z,4.53
2023-04-10T04:58:43.516Z,3.67
2023-04-10T05:01:10.250Z,4.47
2023-04-10T05:03:37.011Z,4.40
2023-04-10T05:06:03.850Z,4.40
2023-04-10T05:08:30.770Z,4.63
2023-04-10T05:10:57.334Z,5.33
2023-04-10T05:13:23.990Z,3.93
2023-04-10T05:15:50.780Z,4.43
2023-04-10T05:18:19.891Z,4.30
2023-04-10T05:20:47.555Z,4.13
2023-04-10T05:23:14.408Z,4.47
2023-04-10T05:25:41.516Z,4.33
2023-04-10T05:28:08.356Z,4.40
2023-04-10T05:30:34.949Z,4.13
2023-04-10T05:33:02.314Z,4.70
2023-04-10T05:35:28.976Z,4.77
2023-04-10T05:37:55.663Z,4.73
2023-04-10T05:40:22.338Z,5.10
2023-04-10T05:42:48.975Z,4.97
2023-04-10T05:45:15.634Z,4.77
2023-04-10T05:47:42.362Z,4.30
2023-04-10T05:50:09.579Z,4.23
2023-04-10T05:52:36.294Z,5.07
2023-04-10T05:55:03.452Z,4.73
2023-04-10T05:57:30.496Z,6.53
2023-04-10T05:59:57.115Z,5.93
2023-04-10T06:02:24.760Z,6.17
2023-04-10T06:04:51.736Z,5.87
2023-04-10T06:07:18.399Z,6.70
2023-04-10T06:09:44.982Z,7.33
2023-04-10T06:12:11.829Z,6.73
2023-04-10T06:14:38.444Z,7.43
2023-04-10T06:17:05.027Z,6.73
2023-04-10T06:19:31.736Z,5.97
2023-04-10T06:21:58.341Z,6.67
2023-04-10T06:24:24.871Z,6.67
2023-04-10T06:26:51.500Z,5.77
2023-04-10T06:29:18.186Z,7.67
2023-04-10T06:31:44.926Z,5.07
2023-04-10T06:34:11.521Z,4.77
2023-04-10T06:36:38.688Z,3.90
2023-04-10T06:39:06.639Z,5.43
2023-04-10T06:41:33.294Z,5.60
2023-04-10T06:44:02.504Z,5.47
2023-04-10T06:46:30.330Z,5.00
2023-04-10T06:48:57.140Z,4.83
2023-04-10T06:51:23.800Z,4.93
2023-04-10T06:53:50.475Z,4.53
2023-04-10T06:56:17.087Z,5.47
2023-04-10T06:58:43.803Z,4.80
2023-04-10T07:01:10.504Z,4.40
2023-04-10T07:03:37.293Z,7.17
2023-04-10T07:06:04.444Z,6.40
2023-04-10T07:08:31.040Z,7.03
2023-04-10T07:10:58.796Z,5.77
2023-04-10T07:13:25.648Z,5.17
2023-04-10T07:15:52.467Z,5.93
2023-04-10T07:18:19.287Z,6.03
2023-04-10T07:20:45.866Z,6.17
2023-04-10T07:23:12.497Z,5.87
2023-04-10T07:25:40.630Z,6.50
2023-04-10T07:28:07.255Z,5.43
2023-04-10T07:30:33.861Z,6.20
2023-04-10T07:33:00.706Z,5.13
2023-04-10T07:35:27.474Z,4.83
2023-04-10T07:37:54.682Z,6.07
2023-04-10T07:40:21.559Z,5.83
2023-04-10T07:42:48.317Z,5.90
2023-04-10T07:45:15.127Z,7.07
2023-04-10T07:47:41.897Z,5.27
2023-04-10T07:50:09.097Z,6.30
2023-04-10T07:52:36.068Z,5.50
2023-04-10T07:55:05.915Z,6.70
2023-04-10T07:57:32.552Z,5.93
2023-04-10T07:59:59.216Z,5.83
2023-04-10T08:02:26.138Z,5.60
2023-04-10T08:04:53.263Z,5.53
2023-04-10T08:07:22.446Z,5.10
2023-04-10T08:09:49.097Z,6.67
2023-04-10T08:12:16.225Z,5.27
2023-04-10T08:14:43.731Z,5.57
2023-04-10T08:17:14.808Z,5.20
2023-04-10T08:19:42.410Z,5.87
2023-04-10T08:22:09.331Z,5.10
2023-04-10T08:24:35.993Z,5.57
2023-04-10T08:27:02.692Z,6.40
2023-04-10T08:29:29.324Z,5.50
2023-04-10T08:31:56.567Z,5.50
2023-04-10T08:34:24.438Z,5.63
2023-04-10T08:36:51.185Z,6.07
2023-04-10T08:39:18.531Z,5.40
2023-04-10T08:41:45.294Z,5.17
2023-04-10T08:44:12.304Z,5.90
2023-04-10T08:46:43.705Z,4.77
2023-04-10T08:49:17.221Z,5.13
2023-04-10T08:51:49.338Z,5.30
2023-04-10T08:54:26.054Z,4.93
2023-04-10T08:56:54.452Z,5.50
2023-04-10T08:59:21.605Z,5.53
2023-04-10T09:01:48.920Z,5.97
2023-04-10T09:04:17.997Z,6.27
2023-04-10T09:06:44.903Z,5.20
2023-04-10T09:09:11.586Z,5.33
2023-04-10T09:11:54.161Z,4.90
2023-04-10T09:14:26.676Z,5.43
2023-04-10T09:16:54.852Z,5.97
2023-04-10T09:19:32.428Z,5.93
2023-04-10T09:21:59.473Z,4.97
2023-04-10T09:24:26.732Z,5.80
2023-04-10T09:26:53.561Z,5.57
2023-04-10T09:29:20.275Z,5.27
2023-04-10T09:31:46.903Z,5.20
2023-04-10T09:34:18.793Z,4.80
2023-04-10T09:36:57.272Z,6.07
2023-04-10T09:39:43.819Z,5.37
2023-04-10T09:42:14.944Z,5.60
2023-04-10T09:44:42.184Z,5.43
2023-04-10T09:47:14.637Z,5.63
2023-04-10T09:49:49.631Z,5.30
2023-04-10T09:52:21.996Z,5.13
2023-04-10T09:54:48.849Z,5.67
2023-04-10T09:57:19.232Z,4.70
2023-04-10T09:59:54.259Z,6.20
2023-04-10T10:02:23.267Z,4.93
2023-04-10T10:04:51.105Z,4.23
2023-04-10T10:07:20.453Z,4.67
2023-04-10T10:09:49.075Z,5.23
2023-04-10T10:12:34.248Z,4.50
2023-04-10T10:15:11.603Z,4.87
2023-04-10T10:17:54.231Z,4.90
2023-04-10T10:20:23.978Z,5.03
2023-04-10T10:22:51.894Z,5.00
2023-04-10T10:25:20.504Z,6.73
2023-04-10T10:27:50.289Z,6.67
2023-04-10T10:30:29.474Z,5.27
2023-04-10T10:32:58.878Z,9.20
2023-04-10T10:35:29.270Z,5.47
2023-04-10T10:37:58.576Z,6.30
2023-04-10T10:40:31.438Z,4.60
2023-04-10T10:43:13.926Z,5.83
2023-04-10T10:46:02.387Z,4.87
2023-04-10T10:48:29.304Z,4.80
2023-04-10T10:51:01.002Z,5.37
2023-04-10T10:53:43.208Z,3.63
2023-04-10T10:56:18.659Z,5.00
2023-04-10T10:58:54.588Z,5.13
2023-04-10T11:01:22.274Z,4.07
2023-04-10T11:03:49.628Z,5.77
2023-04-10T11:06:19.551Z,5.03
2023-04-10T11:08:48.615Z,6.57
2023-04-10T11:11:20.095Z,5.30
2023-04-10T11:13:58.396Z,6.80
2023-04-10T11:16:44.280Z,4.47
2023-04-10T11:19:15.933Z,4.70
2023-04-10T11:22:04.772Z,4.50
2023-04-10T11:24:57.438Z,5.00
2023-04-10T11:27:45.964Z,4.67
2023-04-10T11:30:36.232Z,4.73
2023-04-10T11:33:05.524Z,4.40
2023-04-10T11:35:33.573Z,4.20
2023-04-10T11:38:13.829Z,4.60
2023-04-10T11:40:57.925Z,4.63
2023-04-10T11:43:24.732Z,4.13
2023-04-10T11:46:00.053Z,3.37
2023-04-10T11:48:29.307Z,4.77
2023-04-10T11:50:56.109Z,4.93
2023-04-10T11:53:22.831Z,4.83
2023-04-10T11:55:50.103Z,4.90
2023-04-10T11:58:27.532Z,4.47
2023-04-10T12:01:04.694Z,4.17
2023-04-10T12:03:40.188Z,4.20
2023-04-10T12:06:10.398Z,5.57
2023-04-10T12:08:42.211Z,5.13
2023-04-10T12:11:10.812Z,4.50
2023-04-10T12:13:38.737Z,4.00
2023-04-10T12:16:08.052Z,4.97
2023-04-10T12:18:35.034Z,4.13
2023-04-10T12:21:02.567Z,4.40
2023-04-10T12:23:30.271Z,3.47
2023-04-10T12:26:09.518Z,4.27
2023-04-10T12:28:37.879Z,4.90
2023-04-10T12:31:05.268Z,4.33
2023-04-10T12:33:32.267Z,4.03
2023-04-10T12:35:59.340Z,5.27
2023-04-10T12:38:36.150Z,5.00
2023-04-10T12:41:03.880Z,4.93
2023-04-10T12:43:36.202Z,5.13
2023-04-10T12:46:03.569Z,4.77
2023-04-10T12:48:30.693Z,5.67
2023-04-10T12:50:57.889Z,4.17
2023-04-10T12:53:25.543Z,2.40
2023-04-10T12:56:06.941Z,3.10
2023-04-10T12:58:33.756Z,3.00
2023-04-10T13:01:06.046Z,2.93
2023-04-10T13:03:37.956Z,3.90
2023-04-10T13:06:08.312Z,6.27
2023-04-10T13:08:35.546Z,3.40
2023-04-10T13:11:03.649Z,4.87
2023-04-10T13:13:31.450Z,6.63
2023-04-10T13:15:58.729Z,4.73
2023-04-10T13:18:25.619Z,3.87
2023-04-10T13:20:52.441Z,4.50
2023-04-10T13:23:19.030Z,3.90
2023-04-10T13:25:45.765Z,4.20
2023-04-10T13:28:12.480Z,6.03
2023-04-10T13:30:41.583Z,5.10
2023-04-10T13:33:09.727Z,3.97
2023-04-10T13:35:36.510Z,3.93
2023-04-10T13:38:03.575Z,4.47
2023-04-10T13:40:30.353Z,4.57
2023-04-10T13:42:57.083Z,4.03
2023-04-10T13:45:23.711Z,5.10
2023-04-10T13:47:50.696Z,4.27
2023-04-10T13:50:17.531Z,5.67
2023-04-10T13:52:44.165Z,4.47
2023-04-10T13:55:10.958Z,5.30
2023-04-10T13:57:38.149Z,4.70
2023-04-10T14:00:05.717Z,5.37
2023-04-10T14:02:33.938Z,4.87
2023-04-10T14:05:00.828Z,5.37
2023-04-10T14:07:27.511Z,5.03
2023-04-10T14:09:55.345Z,5.47
2023-04-10T14:12:23.385Z,5.60
2023-04-10T14:14:50.192Z,5.73
2023-04-10T14:17:16.773Z,5.07
2023-04-10T14:19:43.483Z,5.30
2023-04-10T14:22:10.091Z,5.37
2023-04-10T14:24:36.679Z,5.83
2023-04-10T14:27:03.461Z,5.30
2023-04-10T14:31:59.739Z,6.27
2023-04-10T14:34:26.438Z,4.13
2023-04-10T14:36:56.247Z,3.70
2023-04-10T14:39:25.943Z,3.47
2023-04-10T14:41:52.579Z,4.23
2023-04-10T14:44:19.260Z,5.70
2023-04-10T14:46:46.263Z,6.50
2023-04-10T14:49:15.012Z,4.70
2023-04-10T14:51:46.043Z,4.37
2023-04-10T14:54:12.698Z,4.43
2023-04-10T14:56:39.342Z,4.67
2023-04-10T14:59:07.178Z,4.83
2023-04-10T15:01:35.638Z,5.93
2023-04-10T15:04:02.670Z,4.97
2023-04-10T15:06:32.329Z,7.30
2023-04-10T15:08:58.949Z,7.07
2023-04-10T15:11:25.829Z,9.47
2023-04-10T15:13:52.898Z,7.00
2023-04-10T15:16:19.736Z,6.10
2023-04-10T15:18:49.587Z,5.50
2023-04-10T15:21:17.058Z,6.13
2023-04-10T15:23:43.749Z,5.10
2023-04-10T15:26:14.564Z,18.83
2023-04-10T15:28:43.152Z,10.63
2023-04-10T15:31:11.115Z,12.43
2023-04-10T15:33:39.349Z,8.00
2023-04-10T15:36:07.972Z,5.43
2023-04-10T15:38:35.981Z,8.40
2023-04-10T15:41:12.903Z,5.27
2023-04-10T15:43:39.599Z,4.83
2023-04-10T15:46:06.431Z,4.23
2023-04-10T15:48:33.248Z,4.43
2023-04-10T15:51:04.708Z,4.87
2023-04-10T15:53:31.346Z,4.27
2023-04-10T15:55:58.018Z,5.50
2023-04-10T15:58:24.579Z,5.10
2023-04-10T16:00:51.202Z,5.23
2023-04-10T16:03:18.051Z,4.93
2023-04-10T16:05:44.663Z,3.03
2023-04-10T16:08:11.328Z,4.60
2023-04-10T16:10:37.971Z,14.10
2023-04-10T16:13:06.591Z,5.67
2023-04-10T16:15:37.746Z,6.03
2023-04-10T16:18:05.919Z,5.00
2023-04-10T16:20:32.703Z,4.47
2023-04-10T16:23:00.247Z,4.73
2023-04-10T16:25:27.556Z,6.17
2023-04-10T16:27:55.655Z,5.30
2023-04-10T16:30:24.211Z,5.63
2023-04-10T16:32:51.301Z,6.97
2023-04-10T16:35:22.513Z,9.40
2023-04-10T16:37:49.545Z,6.77
2023-04-10T16:40:16.223Z,6.17
2023-04-10T16:42:43.008Z,13.63
2023-04-10T16:45:10.688Z,11.87
2023-04-10T16:47:38.017Z,40.60
2023-04-10T16:50:05.710Z,11.10
2023-04-10T16:52:32.550Z,11.90
2023-04-10T16:54:59.246Z,8.20
2023-04-10T16:57:26.248Z,2.80
2023-04-10T16:59:57.992Z,2.97
2023-04-10T17:02:25.669Z,3.33
2023-04-10T17:04:55.475Z,3.13
2023-04-10T17:07:23.223Z,3.30
2023-04-10T17:09:49.869Z,3.57
2023-04-10T17:12:16.564Z,4.10
2023-04-10T17:14:43.302Z,4.70
2023-04-10T17:17:09.953Z,4.20
2023-04-10T17:19:36.590Z,9.57
2023-04-10T17:22:03.853Z,6.90
2023-04-10T17:24:31.573Z,4.97
2023-04-10T17:26:58.444Z,4.70
2023-04-10T17:29:25.903Z,4.37
2023-04-10T17:31:52.626Z,5.63
2023-04-10T17:34:19.271Z,5.67
2023-04-10T17:36:46.083Z,8.73
2023-04-10T17:39:12.681Z,6.50
2023-04-10T17:41:39.284Z,6.23
2023-04-10T17:44:05.863Z,5.57
2023-04-10T17:46:32.563Z,7.07
2023-04-10T17:49:02.659Z,7.50
2023-04-10T17:51:29.622Z,7.43
2023-04-10T17:53:56.315Z,7.77
2023-04-10T17:56:23.044Z,6.73
2023-04-10T17:58:49.727Z,8.60
2023-04-10T18:01:29.880Z,8.60
2023-04-10T18:04:02.770Z,7.93
2023-04-10T18:06:29.794Z,8.57
2023-04-10T18:08:57.374Z,8.33
2023-04-10T18:11:24.310Z,9.30
2023-04-10T18:13:51.076Z,10.10
2023-04-10T18:16:17.952Z,8.30
2023-04-10T18:18:44.739Z,7.43
2023-04-10T18:21:13.375Z,7.30
2023-04-10T18:23:40.586Z,8.20
2023-04-10T18:26:07.928Z,11.47
2023-04-10T18:28:36.607Z,11.93
2023-04-10T18:31:03.589Z,17.60
2023-04-10T18:33:30.681Z,16.50
2023-04-10T18:35:58.758Z,26.00
2023-04-10T18:38:26.086Z,12.53
2023-04-10T18:40:57.194Z,33.87
2023-04-10T18:43:27.678Z,24.13
2023-04-10T18:45:55.155Z,16.47
2023-04-10T18:48:22.064Z,11.27
2023-04-10T18:50:53.297Z,23.13
2023-04-10T18:53:20.996Z,9.63
2023-04-10T18:55:52.052Z,7.37
2023-04-10T18:58:20.289Z,7.20
2023-04-10T19:00:47.590Z,6.10
2023-04-10T19:03:14.586Z,5.90
2023-04-10T19:05:42.882Z,7.60
2023-04-10T19:08:14.124Z,7.07
2023-04-10T19:10:44.204Z,7.13
2023-04-10T19:13:12.164Z,6.07
2023-04-10T19:15:40.773Z,6.70
2023-04-10T19:18:07.640Z,7.27
2023-04-10T19:20:50.646Z,9.33
2023-04-10T19:23:19.143Z,7.53
2023-04-10T19:25:45.885Z,9.20
2023-04-10T19:28:12.745Z,8.47
2023-04-10T19:30:39.338Z,9.67
2023-04-10T19:33:06.050Z,8.90
2023-04-10T19:35:32.719Z,9.33
2023-04-10T19:37:59.395Z,10.27
2023-04-10T19:40:26.308Z,7.90
2023-04-10T19:42:53.090Z,10.50
2023-04-10T19:45:20.364Z,13.23
2023-04-10T19:47:50.704Z,11.33
2023-04-10T19:50:17.445Z,9.83
2023-04-10T19:52:44.045Z,10.70
2023-04-10T19:55:10.938Z,12.33
2023-04-10T19:57:37.570Z,10.17
2023-04-10T20:00:04.443Z,9.80
2023-04-10T20:02:31.152Z,8.70
2023-04-10T20:04:58.219Z,9.17
2023-04-10T20:07:25.003Z,9.23
2023-04-10T20:09:51.696Z,10.27
2023-04-10T20:12:18.288Z,10.37
2023-04-10T20:14:45.121Z,10.20
2023-04-10T20:17:12.333Z,13.17
2023-04-10T20:19:39.031Z,11.23
2023-04-10T20:22:07.249Z,12.23
2023-04-10T20:24:34.252Z,12.70
2023-04-10T20:27:01.537Z,12.63
2023-04-10T20:29:28.144Z,10.20
2023-04-10T20:31:54.808Z,11.47
2023-04-10T20:34:21.576Z,10.57
2023-04-10T20:36:48.141Z,8.90
2023-04-10T20:39:14.927Z,9.10
2023-04-10T20:41:41.520Z,9.87
2023-04-10T20:44:08.223Z,10.07
2023-04-10T20:46:34.818Z,10.07
2023-04-10T20:49:02.323Z,9.80
2023-04-10T20:51:28.928Z,18.57
2023-04-10T20:53:55.673Z,10.77
2023-04-10T20:56:32.886Z,10.10
2023-04-10T20:59:07.163Z,12.10
2023-04-10T21:01:34.643Z,11.10
2023-04-10T21:04:01.921Z,10.47
2023-04-10T21:06:28.963Z,12.93
2023-04-10T21:08:55.958Z,9.40
2023-04-10T21:11:22.788Z,10.13
2023-04-10T21:13:49.474Z,9.20
2023-04-10T21:16:16.290Z,8.10
2023-04-10T21:18:42.971Z,7.63
2023-04-10T21:21:09.674Z,8.40
2023-04-10T21:23:36.493Z,7.57
2023-04-10T21:26:03.538Z,5.90
2023-04-10T21:28:30.190Z,7.13
2023-04-10T21:30:56.786Z,5.67
2023-04-10T21:33:23.407Z,4.53
2023-04-10T21:35:50.071Z,5.57
2023-04-10T21:38:16.695Z,4.43
2023-04-10T21:40:50.476Z,4.73
2023-04-10T21:43:17.061Z,5.87
2023-04-10T21:45:43.746Z,6.50
2023-04-10T21:48:10.619Z,5.67
2023-04-10T21:50:37.348Z,4.90
2023-04-10T21:53:04.057Z,9.73
2023-04-10T21:55:30.676Z,9.70
2023-04-10T21:57:57.517Z,9.40
2023-04-10T22:00:24.179Z,4.33
2023-04-10T22:02:51.775Z,6.23
2023-04-10T22:05:18.525Z,4.50
2023-04-10T22:07:45.289Z,9.97
2023-04-10T22:10:12.059Z,4.50
2023-04-10T22:12:38.677Z,5.30
2023-04-10T22:15:07.831Z,3.90
2023-04-10T22:17:34.732Z,5.07
2023-04-10T22:20:02.326Z,4.43
2023-04-10T22:22:28.980Z,4.33
2023-04-10T22:24:55.615Z,4.53
2023-04-10T22:27:23.814Z,8.57
2023-04-10T22:30:02.081Z,4.23
2023-04-10T22:32:29.751Z,6.83
2023-04-10T22:34:58.105Z,8.37
2023-04-10T22:37:24.689Z,9.47
2023-04-10T22:39:51.340Z,15.00
2023-04-10T22:42:17.962Z,10.80
2023-04-10T22:44:45.463Z,7.53
2023-04-10T22:47:12.119Z,6.50
2023-04-10T22:49:38.712Z,10.50
2023-04-10T22:52:05.422Z,7.90
2023-04-10T22:54:32.013Z,7.83
2023-04-10T22:56:58.598Z,6.50
2023-04-10T22:59:25.351Z,10.20
2023-04-10T23:01:52.033Z,10.77
2023-04-10T23:04:18.846Z,4.73
2023-04-10T23:06:45.553Z,6.50
2023-04-10T23:09:12.203Z,5.60
2023-04-10T23:11:38.994Z,4.93
2023-04-10T23:14:05.602Z,6.30
2023-04-10T23:16:32.319Z,5.40
2023-04-10T23:18:58.965Z,5.43
2023-04-10T23:21:25.673Z,5.27
2023-04-10T23:23:52.282Z,4.73
2023-04-10T23:26:18.861Z,5.53
2023-04-10T23:28:46.104Z,6.37
2023-04-10T23:31:12.774Z,5.70
2023-04-10T23:33:39.422Z,6.40
2023-04-10T23:36:06.517Z,6.27
2023-04-10T23:38:33.192Z,4.40
2023-04-10T23:40:59.731Z,5.40
2023-04-10T23:43:26.358Z,7.20
2023-04-10T23:45:52.964Z,4.57
2023-04-10T23:48:19.638Z,5.80
2023-04-10T23:50:46.225Z,4.27
2023-04-10T23:53:14.438Z,7.20
2023-04-10T23:55:42.207Z,6.37
2023-04-10T23:58:09.041Z,8.00
